Time;durP1;ratioP1;P1;durP2;ratioP2;P2;SDS_P1;SDS_P2;PMS_P1;PMS_P2;Temp;Humidity;BMP_temperature;BMP_pressure;BME280_temperature;BME280_humidity;BME280_pressure;Samples;Min_cycle;Max_cycle;Signal;HPM_P1;HPM_P2
2022/01/25 00:24:21;;;;;;;;;;;-0.30;99.90;;;;;;4167413;28;19979;-50
2022/01/25 00:26:32;;;;;;;;;;;-0.30;99.90;;;;;;4173611;28;19929;-49
2022/01/25 00:30:58;;;;;;;;;;;-0.40;99.90;;;;;;4165435;28;20055;-49
2022/01/25 00:33:00;;;;;;;;;;;-0.40;99.90;;;;;;4169160;28;20417;-49
2022/01/25 00:35:02;;;;;;;;;;;-0.40;99.90;;;;;;4174550;28;19960;-50
2022/01/25 00:37:04;;;;;;;;;;;-0.40;99.90;;;;;;4178138;28;19925;-50
2022/01/25 00:39:06;;;;;;;;;;;-0.30;99.90;;;;;;4175894;28;20349;-49
2022/01/25 00:41:08;;;;;;;;;;;-0.30;99.90;;;;;;4176339;28;19940;-47
2022/01/25 00:43:10;;;;;;;;;;;-0.20;99.90;;;;;;4177895;28;20560;-49
2022/01/25 00:45:14;;;;;;;;;;;-0.20;99.90;;;;;;4154538;28;19925;-50
2022/01/25 00:47:17;;;;;;;;;;;-0.10;99.90;;;;;;4177123;28;19933;-49
2022/01/25 00:49:27;;;;;;;;;;;-0.10;99.90;;;;;;4176538;28;19936;-48
2022/01/25 00:55:53;;;;;;;;;;;-0.10;99.90;;;;;;4175685;28;19929;-49
2022/01/25 00:57:55;;;;;;;;;;;-0.10;99.90;;;;;;4176378;28;20016;-49
2022/01/25 00:59:57;;;;;;;;;;;-0.10;99.90;;;;;;4158570;28;19925;-49
2022/01/25 01:02:04;;;;;;;;;;;-0.20;99.90;;;;;;4178690;28;19968;-50
2022/01/25 01:04:07;;;;;;;;;;;-0.20;99.90;;;;;;4171288;28;19937;-49
2022/01/25 01:06:09;;;;;;;;;;;-0.20;99.90;;;;;;4158244;28;20314;-49
2022/01/25 01:08:11;;;;;;;;;;;-0.10;99.90;;;;;;4177252;28;19925;-49
2022/01/25 01:10:16;;;;;;;;;;;-0.20;99.90;;;;;;4174149;28;20317;-48
2022/01/25 01:31:02;;;;;;;;;;;-0.60;99.90;;;;;;4172076;28;19925;-49
2022/01/25 01:39:40;;;;;;;;;;;-0.80;99.90;;;;;;4175489;28;19925;-48
2022/01/25 01:43:54;;;;;;;;;;;-0.60;99.90;;;;;;4175346;28;20410;-49
2022/01/25 01:46:28;;;;;;;;;;;-0.60;99.90;;;;;;4176193;28;19935;-50
2022/01/25 01:48:38;;;;;;;;;;;-0.60;99.90;;;;;;4177139;28;20040;-47
2022/01/25 01:50:40;;;;;;;;;;;-0.60;99.90;;;;;;4175274;28;19924;-49
2022/01/25 01:52:42;;;;;;;;;;;-0.60;99.90;;;;;;4175703;28;19968;-48
2022/01/25 01:54:44;;;;;;;;;;;-0.60;99.90;;;;;;4177186;28;20012;-48
2022/01/25 01:56:46;;;;;;;;;;;-0.60;99.90;;;;;;4172040;28;20023;-49
2022/01/25 01:58:51;;;;;;;;;;;-0.60;99.90;;;;;;4174925;28;19964;-49
2022/01/25 02:00:53;;;;;;;;;;;-0.60;99.90;;;;;;4177202;28;19932;-48
2022/01/25 02:02:55;;;;;;;;;;;-0.80;99.90;;;;;;4174648;28;19932;-46
2022/01/25 02:04:57;;;;;;;;;;;-0.80;99.90;;;;;;4167131;28;19933;-47
2022/01/25 02:06:59;;;;;;;;;;;-0.80;99.90;;;;;;4167080;28;20003;-49
2022/01/25 02:09:01;;;;;;;;;;;-0.90;99.90;;;;;;4173741;28;19924;-48
2022/01/25 02:11:04;;;;;;;;;;;-1.00;99.90;;;;;;4175209;28;20016;-47
2022/01/25 02:13:07;;;;;;;;;;;-1.00;99.90;;;;;;4177293;28;19928;-49
2022/01/25 02:15:09;;;;;;;;;;;-1.10;99.90;;;;;;4173837;28;19929;-48
2022/01/25 02:17:27;;;;;;;;;;;-1.10;99.90;;;;;;4172442;28;19925;-49
2022/01/25 02:24:15;;;;;;;;;;;-1.00;99.90;;;;;;4170342;28;19975;-46
2022/01/25 02:26:17;;;;;;;;;;;-0.90;99.90;;;;;;4175500;28;19968;-48
2022/01/25 02:28:19;;;;;;;;;;;-0.90;99.90;;;;;;4176364;28;19928;-49
2022/01/25 02:30:21;;;;;;;;;;;-0.80;99.90;;;;;;4170295;28;19976;-49
2022/01/25 02:32:23;;;;;;;;;;;-0.90;99.90;;;;;;4167804;28;20307;-50
2022/01/25 02:34:26;;;;;;;;;;;-0.90;99.90;;;;;;4175777;28;19932;-46
2022/01/25 02:36:28;;;;;;;;;;;-0.90;99.90;;;;;;4175191;28;20011;-46
2022/01/25 02:38:30;;;;;;;;;;;-0.90;99.90;;;;;;4176672;28;19971;-47
2022/01/25 02:40:33;;;;;;;;;;;-1.00;99.90;;;;;;4175003;28;20309;-47
2022/01/25 02:42:35;;;;;;;;;;;-1.00;99.90;;;;;;4174580;28;20523;-48
2022/01/25 02:44:37;;;;;;;;;;;-1.10;99.90;;;;;;4176391;28;19940;-46
2022/01/25 02:48:29;;;;;;;;;;;-1.20;99.90;;;;;;4175138;28;20012;-49
2022/01/25 02:49:03;;;;;;;;;;;-1.40;99.90;;;;;;4174314;28;19971;-48
2022/01/25 02:51:05;;;;;;;;;;;-1.50;99.90;;;;;;4175584;28;19929;-47
2022/01/25 02:53:07;;;;;;;;;;;-1.40;99.90;;;;;;4177832;28;19959;-47
2022/01/25 02:55:09;;;;;;;;;;;-1.40;99.90;;;;;;4173935;28;20306;-51
2022/01/25 02:57:11;;;;;;;;;;;-1.30;99.90;;;;;;4177735;28;20007;-49
2022/01/25 02:59:14;;;;;;;;;;;-1.20;99.90;;;;;;4161243;28;19965;-47
2022/01/25 03:01:17;;;;;;;;;;;-1.00;99.90;;;;;;4173878;28;20016;-48
2022/01/25 03:03:19;;;;;;;;;;;-0.90;99.90;;;;;;4176759;28;19935;-48
2022/01/25 03:05:21;;;;;;;;;;;-0.80;99.90;;;;;;4171902;28;20371;-47
2022/01/25 03:07:23;;;;;;;;;;;-0.80;99.90;;;;;;4174996;28;20397;-49
2022/01/25 03:09:25;;;;;;;;;;;-0.80;99.90;;;;;;4174363;28;20377;-49
2022/01/25 03:11:27;;;;;;;;;;;-0.90;99.90;;;;;;4177933;28;19929;-48
2022/01/25 03:13:34;;;;;;;;;;;-1.00;99.90;;;;;;4176393;28;19929;-50
2022/01/25 03:15:57;;;;;;;;;;;-1.00;99.90;;;;;;4178942;28;20003;-49
2022/01/25 03:18:07;;;;;;;;;;;-1.00;99.90;;;;;;4178009;28;19971;-50
2022/01/25 03:20:18;;;;;;;;;;;-1.00;99.90;;;;;;4177279;28;20392;-49
2022/01/25 03:24:33;;;;;;;;;;;-1.00;99.90;;;;;;4176129;28;19929;-50
2022/01/25 03:26:35;;;;;;;;;;;-0.90;99.90;;;;;;4177580;28;20020;-50
2022/01/25 03:28:37;;;;;;;;;;;-1.00;99.90;;;;;;4171469;28;20526;-48
2022/01/25 03:30:39;;;;;;;;;;;-0.90;99.90;;;;;;4178458;28;19970;-47
2022/01/25 03:32:41;;;;;;;;;;;-0.80;99.90;;;;;;4177364;28;19932;-49
2022/01/25 03:34:43;;;;;;;;;;;-0.90;99.90;;;;;;4177478;28;19932;-51
2022/01/25 03:36:45;;;;;;;;;;;-0.80;99.90;;;;;;4177589;28;19929;-48
2022/01/25 03:38:47;;;;;;;;;;;-0.70;99.90;;;;;;4172467;28;20480;-50
2022/01/25 03:40:49;;;;;;;;;;;-0.70;99.90;;;;;;4170198;28;19929;-45
2022/01/25 03:42:51;;;;;;;;;;;-0.80;99.90;;;;;;4179095;28;20015;-48
2022/01/25 03:44:55;;;;;;;;;;;-0.80;99.90;;;;;;4157667;28;19971;-46
2022/01/25 03:47:04;;;;;;;;;;;-0.80;99.90;;;;;;4178413;28;20621;-47
2022/01/25 03:51:27;;;;;;;;;;;-0.90;99.90;;;;;;4176770;28;20377;-47
2022/01/25 03:53:29;;;;;;;;;;;-1.00;99.90;;;;;;4177189;28;19932;-49
2022/01/25 03:55:31;;;;;;;;;;;-1.00;99.90;;;;;;4178927;28;20351;-47
2022/01/25 03:57:33;;;;;;;;;;;-1.00;99.90;;;;;;4177252;28;20383;-49
2022/01/25 03:59:35;;;;;;;;;;;-1.00;99.90;;;;;;4177198;28;19925;-50
2022/01/25 04:01:37;;;;;;;;;;;-1.00;99.90;;;;;;4178433;28;20308;-49
2022/01/25 04:03:45;;;;;;;;;;;-1.00;99.90;;;;;;4172982;28;19931;-47
2022/01/25 04:05:50;;;;;;;;;;;-0.90;99.90;;;;;;4176870;28;19964;-48
2022/01/25 04:07:52;;;;;;;;;;;-0.30;99.90;;;;;;4169520;28;19936;-48
2022/01/25 04:09:59;;;;;;;;;;;-0.30;99.90;;;;;;4175570;28;19994;-50
2022/01/25 04:12:02;;;;;;;;;;;-0.40;99.90;;;;;;4176888;28;20468;-49
2022/01/25 04:14:04;;;;;;;;;;;-0.60;99.90;;;;;;4168090;28;19929;-49
2022/01/25 04:16:15;;;;;;;;;;;-0.70;99.90;;;;;;4176306;28;19968;-49
2022/01/25 04:18:32;;;;;;;;;;;-0.50;99.90;;;;;;4175195;28;19929;-50
2022/01/25 04:20:35;;;;;;;;;;;-0.50;99.90;;;;;;4169452;28;19990;-49
2022/01/25 04:27:05;;;;;;;;;;;-0.70;99.90;;;;;;4177961;28;19924;-49
2022/01/25 04:29:07;;;;;;;;;;;-0.60;99.90;;;;;;4177080;28;19963;-46
2022/01/25 04:31:10;;;;;;;;;;;-0.60;99.90;;;;;;4175378;28;19924;-49
2022/01/25 04:33:22;;;;;;;;;;;-0.60;99.90;;;;;;4176287;28;20335;-46
2022/01/25 04:35:40;;;;;;;;;;;-0.70;99.90;;;;;;4177881;28;20603;-50
2022/01/25 04:49:29;;;;;;;;;;;-0.70;99.90;;;;;;4167180;28;19988;-50
2022/01/25 04:54:08;;;;;;;;;;;-0.70;99.90;;;;;;4176265;28;20373;-47
2022/01/25 04:56:21;;;;;;;;;;;-0.80;99.90;;;;;;4171777;28;20023;-48
2022/01/25 04:58:32;;;;;;;;;;;-0.70;99.90;;;;;;4173971;28;19975;-49
2022/01/25 05:00:34;;;;;;;;;;;-0.40;99.90;;;;;;4177960;28;19983;-48
2022/01/25 05:04:47;;;;;;;;;;;-0.50;99.90;;;;;;4174575;28;19939;-49
2022/01/25 05:06:52;;;;;;;;;;;-0.60;99.90;;;;;;4159843;28;19960;-46
2022/01/25 05:08:55;;;;;;;;;;;-0.70;99.90;;;;;;4174530;28;19968;-47
2022/01/25 05:17:29;;;;;;;;;;;-1.10;99.90;;;;;;4175330;28;20067;-48
2022/01/25 05:23:54;;;;;;;;;;;-1.20;99.90;;;;;;4158523;28;20302;-49
2022/01/25 05:25:55;;;;;;;;;;;-1.20;99.90;;;;;;4177038;28;19929;-50
2022/01/25 05:27:57;;;;;;;;;;;-1.20;99.90;;;;;;4178374;28;19937;-50
2022/01/25 05:29:59;;;;;;;;;;;-1.20;99.90;;;;;;4171514;28;19925;-49
2022/01/25 05:32:01;;;;;;;;;;;-1.30;99.90;;;;;;4175655;28;20399;-48
2022/01/25 05:34:04;;;;;;;;;;;-1.20;99.90;;;;;;4166353;28;19931;-46
2022/01/25 05:36:06;;;;;;;;;;;-1.10;99.90;;;;;;4173003;28;19929;-50
2022/01/25 05:38:08;;;;;;;;;;;-1.10;99.90;;;;;;4158431;28;19976;-49
2022/01/25 05:40:15;;;;;;;;;;;-1.20;99.90;;;;;;4175633;28;19956;-47
2022/01/25 05:42:44;;;;;;;;;;;-1.20;99.90;;;;;;4156605;28;20004;-49
2022/01/25 05:48:59;;;;;;;;;;;-1.20;99.90;;;;;;4176329;28;19925;-47
2022/01/25 05:51:01;;;;;;;;;;;-1.20;99.90;;;;;;4175391;28;19939;-49
2022/01/25 05:53:03;;;;;;;;;;;-1.30;99.90;;;;;;4175693;28;20458;-47
2022/01/25 05:55:06;;;;;;;;;;;-1.30;99.90;;;;;;4175511;28;20019;-47
2022/01/25 05:57:08;;;;;;;;;;;-1.40;99.90;;;;;;4174900;28;19964;-47
2022/01/25 05:59:10;;;;;;;;;;;-1.40;99.90;;;;;;4177614;28;19929;-50
2022/01/25 06:01:12;;;;;;;;;;;-1.50;99.90;;;;;;4173622;28;19929;-46
2022/01/25 06:03:14;;;;;;;;;;;-1.50;99.90;;;;;;4176445;28;19936;-50
2022/01/25 06:05:16;;;;;;;;;;;-1.50;99.90;;;;;;4164360;28;19925;-47
2022/01/25 06:07:18;;;;;;;;;;;-1.60;99.90;;;;;;4169498;28;19936;-47
2022/01/25 06:09:20;;;;;;;;;;;-1.70;99.90;;;;;;4175034;28;19929;-47
2022/01/25 06:11:22;;;;;;;;;;;-1.80;99.90;;;;;;4184104;28;19968;-49
2022/01/25 06:13:24;;;;;;;;;;;-1.90;99.90;;;;;;4177230;28;19929;-47
2022/01/25 06:15:26;;;;;;;;;;;-1.80;99.90;;;;;;4175575;28;19928;-47
2022/01/25 06:17:28;;;;;;;;;;;-1.80;99.90;;;;;;4175363;28;19929;-48
2022/01/25 06:19:31;;;;;;;;;;;-1.80;99.90;;;;;;4173751;28;19929;-49
2022/01/25 06:21:33;;;;;;;;;;;-1.80;99.90;;;;;;4176870;28;19932;-49
2022/01/25 06:23:35;;;;;;;;;;;-1.80;99.90;;;;;;4156921;28;19972;-49
2022/01/25 06:25:36;;;;;;;;;;;-1.80;99.90;;;;;;4174794;28;19955;-48
2022/01/25 06:27:39;;;;;;;;;;;-2.00;99.90;;;;;;4179356;28;19971;-48
2022/01/25 06:29:41;;;;;;;;;;;-2.00;99.90;;;;;;4178320;28;19924;-50
2022/01/25 06:31:43;;;;;;;;;;;-2.00;99.90;;;;;;4177081;28;19964;-48
2022/01/25 06:33:46;;;;;;;;;;;-2.00;99.90;;;;;;4180523;28;20456;-47
2022/01/25 06:35:49;;;;;;;;;;;-2.00;99.90;;;;;;4178339;28;19960;-48
2022/01/25 06:37:51;;;;;;;;;;;-2.10;99.90;;;;;;4178149;28;19974;-48
2022/01/25 06:39:54;;;;;;;;;;;-2.00;99.90;;;;;;4174600;28;19972;-49
2022/01/25 06:41:56;;;;;;;;;;;-2.00;99.90;;;;;;4175263;28;19961;-49
2022/01/25 06:43:58;;;;;;;;;;;-2.00;99.90;;;;;;4168608;28;19933;-48
2022/01/25 06:46:03;;;;;;;;;;;-1.90;99.90;;;;;;4181112;28;19935;-48
2022/01/25 06:48:05;;;;;;;;;;;-1.80;99.90;;;;;;4170410;28;20020;-49
2022/01/25 06:50:07;;;;;;;;;;;-1.70;99.90;;;;;;4167585;28;19929;-46
2022/01/25 06:52:10;;;;;;;;;;;-1.80;99.90;;;;;;4179813;28;19925;-49
2022/01/25 06:54:12;;;;;;;;;;;-1.80;99.90;;;;;;4172342;28;19929;-47
2022/01/25 06:56:14;;;;;;;;;;;-1.80;99.90;;;;;;4176837;28;19932;-49
2022/01/25 06:58:16;;;;;;;;;;;-1.90;99.90;;;;;;4176409;28;19975;-48
2022/01/25 07:00:20;;;;;;;;;;;-1.90;99.90;;;;;;4176649;28;20031;-46
2022/01/25 07:02:22;;;;;;;;;;;-1.90;99.90;;;;;;4179689;28;20795;-50
2022/01/25 07:04:24;;;;;;;;;;;-1.90;99.90;;;;;;4180674;28;19968;-50
2022/01/25 07:06:26;;;;;;;;;;;-1.90;99.90;;;;;;4173849;28;19937;-49
2022/01/25 07:08:28;;;;;;;;;;;-1.90;99.90;;;;;;4177398;28;20463;-49
2022/01/25 07:10:30;;;;;;;;;;;-1.90;99.90;;;;;;4182755;28;20571;-49
2022/01/25 07:12:32;;;;;;;;;;;-1.80;99.90;;;;;;4177343;28;20392;-50
2022/01/25 07:14:34;;;;;;;;;;;-1.80;99.90;;;;;;4160318;28;19980;-48
2022/01/25 07:16:36;;;;;;;;;;;-1.80;99.90;;;;;;4165482;28;19960;-48
2022/01/25 07:18:38;;;;;;;;;;;-1.80;99.90;;;;;;4176198;28;19929;-49
2022/01/25 07:20:40;;;;;;;;;;;-1.80;99.90;;;;;;4179147;28;19929;-47
2022/01/25 07:22:46;;;;;;;;;;;-1.80;99.90;;;;;;4179291;28;19929;-49
2022/01/25 07:24:48;;;;;;;;;;;-1.70;99.90;;;;;;4176156;28;19940;-50
2022/01/25 07:26:50;;;;;;;;;;;-1.60;99.90;;;;;;4179204;28;20442;-47
2022/01/25 07:28:56;;;;;;;;;;;-1.60;99.90;;;;;;4178443;28;20312;-47
2022/01/25 07:30:58;;;;;;;;;;;-1.80;99.90;;;;;;4173438;28;20270;-47
2022/01/25 07:33:05;;;;;;;;;;;-1.90;99.90;;;;;;4164486;28;19979;-50
2022/01/25 07:35:14;;;;;;;;;;;-2.00;99.90;;;;;;4159393;28;19925;-49
2022/01/25 07:37:22;;;;;;;;;;;-2.10;99.90;;;;;;4172375;28;19928;-50
2022/01/25 07:39:26;;;;;;;;;;;-2.20;99.90;;;;;;4165209;28;19955;-49
2022/01/25 07:41:28;;;;;;;;;;;-2.10;99.90;;;;;;4178957;28;19936;-49
2022/01/25 07:43:34;;;;;;;;;;;-1.90;99.90;;;;;;4159773;28;19929;-49
2022/01/25 07:45:36;;;;;;;;;;;-1.60;99.90;;;;;;4177545;28;19989;-48
2022/01/25 07:47:38;;;;;;;;;;;-1.40;99.90;;;;;;4164878;28;19935;-49
2022/01/25 07:49:54;;;;;;;;;;;-1.20;99.90;;;;;;4168384;28;20320;-46
2022/01/25 07:51:57;;;;;;;;;;;-1.20;99.90;;;;;;4167559;28;19925;-46
2022/01/25 07:53:59;;;;;;;;;;;-1.10;99.90;;;;;;4179130;28;19929;-48
2022/01/25 07:56:01;;;;;;;;;;;-1.10;99.90;;;;;;4176909;28;19931;-47
2022/01/25 07:58:04;;;;;;;;;;;-1.10;99.90;;;;;;4158587;28;19936;-47
2022/01/25 08:00:06;;;;;;;;;;;-1.10;99.90;;;;;;4165078;28;19928;-47
2022/01/25 08:02:11;;;;;;;;;;;-1.20;99.90;;;;;;4171850;28;20023;-47
2022/01/25 08:04:27;;;;;;;;;;;-1.30;99.90;;;;;;4174568;28;20020;-49
2022/01/25 08:06:29;;;;;;;;;;;-1.30;99.90;;;;;;4177650;28;19974;-49
2022/01/25 08:08:33;;;;;;;;;;;-1.10;99.90;;;;;;4175490;28;19947;-47
2022/01/25 08:10:43;;;;;;;;;;;-1.00;99.90;;;;;;4158169;28;20060;-48
2022/01/25 08:12:59;;;;;;;;;;;-0.90;99.90;;;;;;4174671;28;19941;-46
2022/01/25 08:15:10;;;;;;;;;;;-0.80;99.90;;;;;;4156520;28;19925;-47
2022/01/25 08:17:12;;;;;;;;;;;-0.70;99.90;;;;;;4176681;28;19929;-50
2022/01/25 08:19:37;;;;;;;;;;;-0.70;99.90;;;;;;4163321;28;19937;-49
2022/01/25 08:21:41;;;;;;;;;;;-0.60;99.90;;;;;;4177150;28;19940;-48
2022/01/25 08:23:46;;;;;;;;;;;-0.50;99.90;;;;;;4173586;28;20760;-47
2022/01/25 08:25:49;;;;;;;;;;;-0.50;99.90;;;;;;4158470;28;19928;-48
2022/01/25 08:27:51;;;;;;;;;;;-0.50;99.90;;;;;;4178015;28;19929;-49
2022/01/25 08:29:55;;;;;;;;;;;-0.50;99.90;;;;;;4175168;28;20283;-49
2022/01/25 08:31:57;;;;;;;;;;;-0.50;99.90;;;;;;4178240;28;20373;-47
2022/01/25 08:34:02;;;;;;;;;;;-0.60;99.90;;;;;;4170484;28;19925;-50
2022/01/25 08:36:08;;;;;;;;;;;-0.50;99.90;;;;;;4176661;28;20122;-49
2022/01/25 08:38:24;;;;;;;;;;;-0.50;99.90;;;;;;4154482;28;20738;-49
2022/01/25 08:40:34;;;;;;;;;;;-0.40;99.90;;;;;;4178333;28;19935;-47
2022/01/25 08:42:38;;;;;;;;;;;-0.30;99.90;;;;;;4176627;28;19933;-49
2022/01/25 08:44:40;;;;;;;;;;;-0.20;99.90;;;;;;4176288;28;19929;-49
2022/01/25 08:46:42;;;;;;;;;;;-0.20;99.90;;;;;;4176091;28;19970;-50
2022/01/25 08:48:57;;;;;;;;;;;-0.20;99.90;;;;;;4157475;28;20560;-50
2022/01/25 08:50:59;;;;;;;;;;;-0.20;99.90;;;;;;4173715;28;20613;-49
2022/01/25 08:53:09;;;;;;;;;;;-0.20;99.90;;;;;;4126961;28;20337;-49
2022/01/25 08:55:33;;;;;;;;;;;-0.10;99.90;;;;;;4161598;28;19929;-48
2022/01/25 08:57:46;;;;;;;;;;;0.10;99.90;;;;;;4173995;28;20108;-47
2022/01/25 08:59:48;;;;;;;;;;;0.20;99.90;;;;;;4131529;28;20030;-48
2022/01/25 09:01:50;;;;;;;;;;;0.30;99.90;;;;;;4177626;28;20716;-50
2022/01/25 09:03:54;;;;;;;;;;;0.40;99.90;;;;;;4176131;28;19933;-46
2022/01/25 09:05:56;;;;;;;;;;;0.50;99.90;;;;;;4177509;28;19925;-49
2022/01/25 09:08:00;;;;;;;;;;;0.50;99.90;;;;;;4166703;28;19987;-50
2022/01/25 09:10:03;;;;;;;;;;;0.70;99.90;;;;;;4169912;28;19964;-50
2022/01/25 09:12:06;;;;;;;;;;;0.80;99.90;;;;;;4177395;28;19980;-47
2022/01/25 09:14:08;;;;;;;;;;;0.90;99.90;;;;;;4176735;28;19960;-50
2022/01/25 09:16:10;;;;;;;;;;;0.90;99.90;;;;;;4174802;28;19932;-50
2022/01/25 09:18:13;;;;;;;;;;;1.00;99.90;;;;;;4164914;28;19925;-49
2022/01/25 09:20:15;;;;;;;;;;;1.00;99.90;;;;;;4176341;28;19979;-48
2022/01/25 09:22:19;;;;;;;;;;;1.10;99.90;;;;;;4175598;28;20008;-50
2022/01/25 09:24:21;;;;;;;;;;;1.20;99.90;;;;;;4177740;28;19928;-50
2022/01/25 09:26:23;;;;;;;;;;;1.40;99.90;;;;;;4175931;28;20308;-48
2022/01/25 09:28:26;;;;;;;;;;;1.50;99.90;;;;;;4175809;28;19944;-50
2022/01/25 09:30:28;;;;;;;;;;;1.60;99.90;;;;;;4177572;28;19925;-50
2022/01/25 09:32:30;;;;;;;;;;;1.70;99.90;;;;;;4166902;28;19932;-49
2022/01/25 09:34:32;;;;;;;;;;;1.70;99.90;;;;;;4166366;28;19932;-50
2022/01/25 09:36:34;;;;;;;;;;;1.80;99.90;;;;;;4177606;28;20301;-49
2022/01/25 09:38:36;;;;;;;;;;;2.00;99.90;;;;;;4175056;28;20135;-50
2022/01/25 09:40:38;;;;;;;;;;;2.10;99.90;;;;;;4175288;28;20348;-49
2022/01/25 09:42:40;;;;;;;;;;;2.20;99.90;;;;;;4161673;28;19925;-49
2022/01/25 09:44:42;;;;;;;;;;;2.30;99.90;;;;;;4172801;28;19928;-50
2022/01/25 09:46:44;;;;;;;;;;;2.30;99.90;;;;;;4176851;28;19924;-49
2022/01/25 09:48:47;;;;;;;;;;;2.50;99.90;;;;;;4162333;28;20447;-49
2022/01/25 09:50:49;;;;;;;;;;;2.50;99.90;;;;;;4166461;28;19975;-51
2022/01/25 09:52:51;;;;;;;;;;;2.60;99.90;;;;;;4165305;28;19974;-50
2022/01/25 09:54:54;;;;;;;;;;;2.70;99.90;;;;;;4175954;28;19964;-49
2022/01/25 09:56:56;;;;;;;;;;;2.90;99.90;;;;;;4174831;28;19924;-50
2022/01/25 09:58:58;;;;;;;;;;;3.00;99.90;;;;;;4174391;28;19972;-50
2022/01/25 10:01:01;;;;;;;;;;;3.20;99.90;;;;;;4176538;28;19928;-50
2022/01/25 10:05:16;;;;;;;;;;;3.50;99.90;;;;;;4176613;28;19972;-49
2022/01/25 10:07:27;;;;;;;;;;;3.60;99.90;;;;;;4173849;28;20465;-51
2022/01/25 10:09:29;;;;;;;;;;;3.80;99.90;;;;;;4175082;28;19939;-50
2022/01/25 10:11:37;;;;;;;;;;;4.00;99.90;;;;;;4175148;28;19986;-52
2022/01/25 10:13:43;;;;;;;;;;;4.10;99.90;;;;;;4182809;28;20312;-51
2022/01/25 10:15:45;;;;;;;;;;;4.10;99.90;;;;;;4169558;28;19932;-50
2022/01/25 10:17:52;;;;;;;;;;;4.30;99.90;;;;;;4175474;28;19929;-51
2022/01/25 10:19:54;;;;;;;;;;;4.40;99.90;;;;;;4171305;28;20320;-49
2022/01/25 10:21:59;;;;;;;;;;;4.50;99.90;;;;;;4173326;28;19925;-51
2022/01/25 10:24:10;;;;;;;;;;;4.60;99.90;;;;;;4175115;28;19928;-51
2022/01/25 10:26:22;;;;;;;;;;;4.70;99.90;;;;;;4170886;28;19929;-51
2022/01/25 10:28:43;;;;;;;;;;;5.00;99.90;;;;;;4169932;28;20012;-51
2022/01/25 10:30:50;;;;;;;;;;;5.10;99.90;;;;;;4166378;28;19948;-50
2022/01/25 10:32:52;;;;;;;;;;;5.30;99.90;;;;;;4172352;28;19925;-51
2022/01/25 10:34:54;;;;;;;;;;;5.30;99.90;;;;;;4176707;28;19980;-51
2022/01/25 10:36:57;;;;;;;;;;;5.40;99.90;;;;;;4174909;28;19979;-50
2022/01/25 10:38:59;;;;;;;;;;;5.50;99.90;;;;;;4175235;28;19936;-51
2022/01/25 10:41:06;;;;;;;;;;;5.60;99.90;;;;;;4175196;28;20027;-49
2022/01/25 10:43:12;;;;;;;;;;;5.70;99.90;;;;;;4173445;28;19928;-50
2022/01/25 10:45:17;;;;;;;;;;;5.80;99.90;;;;;;4175326;28;19991;-50
2022/01/25 10:47:35;;;;;;;;;;;6.00;99.90;;;;;;4174307;28;20027;-50
2022/01/25 10:49:48;;;;;;;;;;;6.20;99.90;;;;;;4170797;28;20388;-51
2022/01/25 10:51:50;;;;;;;;;;;6.30;99.90;;;;;;4171857;28;19926;-51
2022/01/25 10:54:04;;;;;;;;;;;6.50;99.90;;;;;;4176719;28;19929;-51
2022/01/25 10:56:06;;;;;;;;;;;6.70;99.90;;;;;;4175118;28;20003;-51
2022/01/25 10:58:09;;;;;;;;;;;6.90;99.90;;;;;;4173211;28;19969;-52
2022/01/25 11:00:12;;;;;;;;;;;7.50;99.90;;;;;;4177201;28;19925;-51
2022/01/25 11:02:21;;;;;;;;;;;7.50;99.90;;;;;;4173466;28;19929;-49
2022/01/25 11:04:25;;;;;;;;;;;7.30;99.90;;;;;;4173402;28;19933;-49
2022/01/25 11:06:27;;;;;;;;;;;7.40;99.90;;;;;;4160751;28;20015;-52
2022/01/25 11:08:29;;;;;;;;;;;7.40;99.90;;;;;;4174318;28;19983;-51
2022/01/25 11:10:32;;;;;;;;;;;7.50;99.90;;;;;;4174516;28;19936;-52
2022/01/25 11:12:38;;;;;;;;;;;8.10;99.90;;;;;;4175888;28;20019;-52
2022/01/25 11:14:57;;;;;;;;;;;8.30;99.90;;;;;;4167652;28;19925;-51
2022/01/25 11:16:59;;;;;;;;;;;8.20;99.90;;;;;;4170588;28;19979;-52
2022/01/25 11:19:02;;;;;;;;;;;8.00;99.50;;;;;;4177355;28;19964;-51
2022/01/25 11:21:06;;;;;;;;;;;8.00;99.90;;;;;;4177285;28;19975;-51
2022/01/25 11:23:08;;;;;;;;;;;8.10;99.90;;;;;;4178024;28;19936;-52
2022/01/25 11:25:10;;;;;;;;;;;8.40;99.20;;;;;;4163201;28;20309;-51
2022/01/25 11:27:12;;;;;;;;;;;8.30;99.10;;;;;;4177168;28;20328;-51
2022/01/25 11:29:15;;;;;;;;;;;8.40;99.00;;;;;;4176033;28;19925;-52
2022/01/25 11:31:20;;;;;;;;;;;8.50;98.90;;;;;;4179548;28;20269;-51
2022/01/25 11:33:23;;;;;;;;;;;8.50;98.60;;;;;;4170162;28;19967;-52
2022/01/25 11:35:25;;;;;;;;;;;9.00;98.90;;;;;;4168553;28;20386;-52
2022/01/25 11:37:35;;;;;;;;;;;9.60;99.30;;;;;;4179775;28;20392;-50
2022/01/25 11:39:41;;;;;;;;;;;9.80;97.70;;;;;;4169862;28;19929;-52
2022/01/25 11:41:43;;;;;;;;;;;9.80;95.90;;;;;;4168136;28;19941;-52
2022/01/25 11:44:27;;;;;;;;;;;10.00;96.10;;;;;;4179710;28;19964;-52
2022/01/25 11:46:28;;;;;;;;;;;10.10;95.10;;;;;;4097823;28;19926;-51
2022/01/25 11:48:41;;;;;;;;;;;9.50;94.80;;;;;;4120875;28;20361;-51
2022/01/25 11:50:44;;;;;;;;;;;9.60;96.40;;;;;;4126307;28;19925;-52
2022/01/25 11:52:47;;;;;;;;;;;10.30;96.80;;;;;;4114280;28;19930;-52
2022/01/25 11:54:50;;;;;;;;;;;10.80;96.00;;;;;;4122905;28;19976;-53
2022/01/25 11:57:07;;;;;;;;;;;11.00;93.80;;;;;;4125026;28;19961;-51
2022/01/25 11:59:09;;;;;;;;;;;10.80;93.30;;;;;;4128076;28;20465;-52
2022/01/25 12:01:19;;;;;;;;;;;11.10;94.90;;;;;;4119067;28;19926;-51
2022/01/25 12:03:29;;;;;;;;;;;11.20;93.70;;;;;;4115501;28;19929;-50
2022/01/25 12:05:33;;;;;;;;;;;10.90;90.70;;;;;;4114647;28;19926;-53
2022/01/25 12:07:40;;;;;;;;;;;10.90;91.70;;;;;;4121622;28;19998;-52
2022/01/25 12:09:53;;;;;;;;;;;10.60;90.90;;;;;;4118032;28;19929;-52
2022/01/25 12:12:00;;;;;;;;;;;10.40;91.60;;;;;;4126585;28;20284;-52
2022/01/25 12:14:21;;;;;;;;;;;10.70;92.30;;;;;;4116747;28;19930;-51
2022/01/25 12:16:27;;;;;;;;;;;10.70;92.20;;;;;;4121677;28;20410;-51
2022/01/25 12:18:49;;;;;;;;;;;10.80;91.40;;;;;;4175089;28;19929;-52
2022/01/25 12:20:51;;;;;;;;;;;11.10;91.60;;;;;;4176026;28;19932;-51
2022/01/25 12:23:06;;;;;;;;;;;11.30;91.30;;;;;;4170487;28;19965;-52
2022/01/25 12:25:16;;;;;;;;;;;11.40;90.20;;;;;;4167556;28;19932;-52
2022/01/25 12:27:24;;;;;;;;;;;10.70;88.90;;;;;;4178262;28;19935;-52
2022/01/25 12:29:33;;;;;;;;;;;10.50;88.60;;;;;;4177024;28;19986;-52
2022/01/25 12:31:42;;;;;;;;;;;10.80;90.30;;;;;;4175026;28;20366;-52
2022/01/25 12:33:48;;;;;;;;;;;11.40;89.90;;;;;;4169405;28;20412;-51
2022/01/25 12:35:54;;;;;;;;;;;11.90;90.60;;;;;;4176686;28;19959;-52
2022/01/25 12:37:57;;;;;;;;;;;12.20;89.70;;;;;;4173565;28;20468;-51
2022/01/25 12:40:18;;;;;;;;;;;12.30;87.20;;;;;;4170284;28;19986;-51
2022/01/25 12:42:20;;;;;;;;;;;12.30;87.30;;;;;;4164506;28;19929;-52
2022/01/25 12:44:22;;;;;;;;;;;12.20;85.30;;;;;;4176599;28;19960;-52
2022/01/25 12:46:25;;;;;;;;;;;11.20;84.50;;;;;;4176544;28;19933;-52
2022/01/25 12:48:29;;;;;;;;;;;10.80;85.40;;;;;;4178315;28;20300;-52
2022/01/25 12:50:31;;;;;;;;;;;11.30;87.70;;;;;;4171831;28;19963;-50
2022/01/25 12:52:33;;;;;;;;;;;11.30;87.90;;;;;;4176162;28;19956;-52
2022/01/25 12:54:35;;;;;;;;;;;11.40;86.30;;;;;;4178233;28;19924;-52
2022/01/25 12:56:42;;;;;;;;;;;11.50;85.80;;;;;;4175731;28;19925;-51
2022/01/25 12:58:46;;;;;;;;;;;11.50;86.50;;;;;;4176579;28;19932;-52
2022/01/25 13:00:50;;;;;;;;;;;11.30;87.50;;;;;;4177459;28;19925;-51
2022/01/25 13:02:52;;;;;;;;;;;11.60;86.30;;;;;;4171808;28;19925;-52
2022/01/25 13:04:54;;;;;;;;;;;11.00;86.00;;;;;;4165302;28;19940;-50
2022/01/25 13:06:56;;;;;;;;;;;10.90;88.20;;;;;;4164843;28;19929;-53
2022/01/25 13:09:15;;;;;;;;;;;10.50;87.20;;;;;;4171944;28;19924;-52
2022/01/25 13:11:46;;;;;;;;;;;10.40;87.30;;;;;;4176022;28;19967;-51
2022/01/25 13:14:14;;;;;;;;;;;10.90;89.20;;;;;;4161588;28;20416;-48
2022/01/25 13:16:33;;;;;;;;;;;10.60;85.00;;;;;;4163487;28;19925;-53
2022/01/25 13:18:38;;;;;;;;;;;10.70;85.30;;;;;;4174164;28;20418;-51
2022/01/25 13:20:42;;;;;;;;;;;10.50;86.90;;;;;;4177117;28;20356;-52
2022/01/25 13:22:46;;;;;;;;;;;10.30;85.10;;;;;;4161334;28;20020;-51
2022/01/25 13:25:11;;;;;;;;;;;10.50;87.70;;;;;;4169872;28;19925;-52
2022/01/25 13:27:14;;;;;;;;;;;10.40;86.30;;;;;;4168607;28;19929;-50
2022/01/25 13:31:36;;;;;;;;;;;10.20;86.50;;;;;;4175985;28;19982;-49
2022/01/25 13:33:39;;;;;;;;;;;10.10;87.00;;;;;;4175616;28;19928;-52
2022/01/25 13:35:47;;;;;;;;;;;10.40;88.50;;;;;;4177489;28;19960;-51
2022/01/25 13:38:03;;;;;;;;;;;10.80;90.20;;;;;;4175893;28;19955;-52
2022/01/25 13:40:05;;;;;;;;;;;10.40;88.20;;;;;;4176102;28;19924;-52
2022/01/25 13:42:09;;;;;;;;;;;10.40;89.20;;;;;;4174455;28;19964;-51
2022/01/25 13:46:51;;;;;;;;;;;10.30;89.00;;;;;;4125803;28;20394;-52
2022/01/25 13:48:55;;;;;;;;;;;10.30;89.90;;;;;;4125490;28;20513;-51
2022/01/25 13:50:58;;;;;;;;;;;10.40;89.60;;;;;;4126653;28;19961;-52
2022/01/25 13:53:01;;;;;;;;;;;10.50;89.70;;;;;;4174967;28;19998;-52
2022/01/25 13:55:10;;;;;;;;;;;10.30;88.90;;;;;;4174327;28;19928;-50
2022/01/25 13:57:13;;;;;;;;;;;10.30;90.20;;;;;;4177146;28;20391;-52
2022/01/25 13:59:16;;;;;;;;;;;10.10;90.00;;;;;;4174907;28;19925;-51
2022/01/25 14:01:20;;;;;;;;;;;10.10;89.80;;;;;;4176703;28;19963;-52